Time;durP1;ratioP1;P1;durP2;ratioP2;P2;SDS_P1;SDS_P2;PMS_P1;PMS_P2;Temp;Humidity;BMP_temperature;BMP_pressure;BME280_temperature;BME280_humidity;BME280_pressure;Samples;Min_cycle;Max_cycle;Signal;HPM_P1;HPM_P2
2023/06/16 00:01:41;;;;;;;4.03;3.60;;;18.90;54.40;;;;;;4956880;28;20498;-64
2023/06/16 00:04:08;;;;;;;4.32;3.70;;;18.80;54.60;;;;;;4956374;28;20059;-64
2023/06/16 00:06:34;;;;;;;3.92;3.63;;;18.80;54.80;;;;;;4956498;28;20034;-64
2023/06/16 00:09:00;;;;;;;4.28;3.88;;;18.70;54.90;;;;;;4957983;28;20073;-64
2023/06/16 00:11:27;;;;;;;4.97;3.75;;;18.60;55.10;;;;;;4956800;28;20073;-63
2023/06/16 00:13:54;;;;;;;3.90;3.55;;;18.50;55.20;;;;;;4956225;28;20054;-64
2023/06/16 00:16:20;;;;;;;3.88;3.58;;;18.40;55.40;;;;;;4955866;28;20070;-64
2023/06/16 00:18:53;;;;;;;4.43;3.83;;;18.30;55.50;;;;;;4954781;28;20576;-64
2023/06/16 00:21:26;;;;;;;4.25;3.85;;;18.30;56.10;;;;;;4956875;28;20039;-64
2023/06/16 00:23:52;;;;;;;3.97;3.60;;;18.10;56.00;;;;;;4956834;28;20042;-64
2023/06/16 00:26:17;;;;;;;4.07;3.60;;;18.10;55.90;;;;;;4956758;28;20086;-64
2023/06/16 00:28:43;;;;;;;3.75;3.45;;;18.00;56.10;;;;;;4956470;28;20458;-63
2023/06/16 00:31:09;;;;;;;4.05;3.65;;;17.90;56.20;;;;;;4955639;28;20031;-63
2023/06/16 00:33:35;;;;;;;3.83;3.53;;;17.80;56.30;;;;;;4955080;28;20539;-64
2023/06/16 00:36:01;;;;;;;4.03;3.72;;;17.70;56.60;;;;;;4955568;28;20035;-63
2023/06/16 00:38:28;;;;;;;4.18;3.88;;;17.70;56.80;;;;;;4954668;28;20109;-64
2023/06/16 00:40:53;;;;;;;4.55;4.03;;;17.70;57.00;;;;;;4958417;28;20726;-64
2023/06/16 00:43:19;;;;;;;4.05;3.63;;;17.60;57.10;;;;;;4958613;28;20114;-64
2023/06/16 00:45:45;;;;;;;5.22;4.15;;;17.60;57.10;;;;;;4957115;28;20411;-64
2023/06/16 00:48:11;;;;;;;5.13;3.80;;;17.60;57.30;;;;;;4956695;28;20402;-64
2023/06/16 00:50:37;;;;;;;4.80;4.05;;;17.50;57.40;;;;;;4956141;28;20034;-64
2023/06/16 00:53:02;;;;;;;4.32;3.92;;;17.50;57.60;;;;;;4954936;28;20042;-64
2023/06/16 00:55:29;;;;;;;4.28;3.97;;;17.40;57.70;;;;;;4955907;28;20035;-64
2023/06/16 00:57:54;;;;;;;4.50;4.10;;;17.40;57.90;;;;;;4956978;28;20117;-63
2023/06/16 01:00:21;;;;;;;4.57;4.18;;;17.30;58.10;;;;;;4954780;28;20040;-64
2023/06/16 01:02:47;;;;;;;4.03;3.72;;;17.20;58.30;;;;;;4941536;28;20043;-63
2023/06/16 01:05:17;;;;;;;5.00;3.60;;;17.10;58.50;;;;;;4956256;28;20130;-64
2023/06/16 01:08:11;;;;;;;4.10;3.80;;;17.00;58.70;;;;;;4956940;28;20035;-64
2023/06/16 01:10:51;;;;;;;4.40;3.83;;;17.00;60.20;;;;;;4959117;28;20543;-64
2023/06/16 01:13:30;;;;;;;5.30;4.13;;;17.00;59.20;;;;;;4958741;28;20046;-63
2023/06/16 01:15:59;;;;;;;4.50;4.05;;;16.90;59.00;;;;;;4959315;28;20068;-64
2023/06/16 01:18:27;;;;;;;4.03;3.70;;;16.90;58.60;;;;;;4960964;28;20269;-64
2023/06/16 01:21:17;;;;;;;5.78;3.88;;;16.80;58.60;;;;;;4957041;28;20121;-64
2023/06/16 01:24:05;;;;;;;4.50;4.10;;;16.80;59.20;;;;;;4958203;28;20063;-64
2023/06/16 01:26:32;;;;;;;4.45;3.83;;;16.70;59.30;;;;;;4958022;28;20039;-63
2023/06/16 01:29:05;;;;;;;5.72;4.22;;;16.70;58.70;;;;;;4960016;28;20459;-64
2023/06/16 01:31:32;;;;;;;8.13;4.18;;;16.70;59.10;;;;;;4958640;28;20027;-64
2023/06/16 01:34:03;;;;;;;4.32;3.92;;;16.70;58.80;;;;;;4958650;28;20031;-64
2023/06/16 01:36:31;;;;;;;7.18;4.07;;;16.70;59.20;;;;;;4957637;28;20100;-61
2023/06/16 01:39:01;;;;;;;4.32;4.03;;;16.70;59.00;;;;;;4958629;28;20494;-64
2023/06/16 01:41:28;;;;;;;113.28;8.50;;;16.70;59.20;;;;;;4942089;28;20137;-63
2023/06/16 01:43:54;;;;;;;20.27;5.05;;;16.60;59.00;;;;;;4960133;28;20046;-64
2023/06/16 01:46:21;;;;;;;11.23;4.55;;;16.60;59.00;;;;;;4956050;28;20050;-64
2023/06/16 01:48:47;;;;;;;9.15;4.00;;;16.60;59.20;;;;;;4957886;28;20039;-65
2023/06/16 01:51:13;;;;;;;4.72;4.22;;;16.60;59.30;;;;;;4958544;28;20085;-64
2023/06/16 01:53:39;;;;;;;5.88;4.30;;;16.60;59.30;;;;;;4957901;28;20045;-64
2023/06/16 01:56:05;;;;;;;4.70;4.30;;;16.60;59.30;;;;;;4958488;28;20530;-64
2023/06/16 01:58:31;;;;;;;6.22;4.40;;;16.50;59.40;;;;;;4957840;28;20035;-64
2023/06/16 02:01:04;;;;;;;4.90;4.50;;;16.40;59.50;;;;;;4958604;28;20472;-64
2023/06/16 02:03:52;;;;;;;4.63;4.22;;;16.40;60.10;;;;;;4956531;28;20537;-64
2023/06/16 02:06:25;;;;;;;5.22;4.18;;;16.30;60.70;;;;;;4957769;28;20054;-64
2023/06/16 02:08:53;;;;;;;5.10;4.60;;;16.20;60.30;;;;;;4945916;28;20035;-63
2023/06/16 02:11:19;;;;;;;5.38;4.20;;;16.20;60.10;;;;;;4957718;28;20035;-64
2023/06/16 02:13:46;;;;;;;4.60;4.30;;;16.20;60.20;;;;;;4957806;28;20039;-64
2023/06/16 02:16:12;;;;;;;5.03;4.63;;;16.10;60.30;;;;;;4958621;28;20091;-64
2023/06/16 02:18:38;;;;;;;8.32;4.00;;;16.10;60.50;;;;;;4957178;28;20042;-64
2023/06/16 02:21:04;;;;;;;4.68;4.20;;;16.00;60.60;;;;;;4958909;28;20109;-64
2023/06/16 02:23:30;;;;;;;6.40;4.30;;;16.00;60.60;;;;;;4958883;28;20031;-63
2023/06/16 02:25:55;;;;;;;5.65;4.53;;;15.90;60.60;;;;;;4960256;28;20039;-64
2023/06/16 02:28:21;;;;;;;5.93;4.53;;;15.80;60.80;;;;;;4959898;28;20511;-64
2023/06/16 02:30:46;;;;;;;4.55;4.15;;;15.80;60.60;;;;;;4957182;28;21772;-64
2023/06/16 02:33:15;;;;;;;4.93;4.35;;;15.70;60.70;;;;;;4957356;28;20078;-63
2023/06/16 02:35:41;;;;;;;4.60;4.13;;;15.70;60.90;;;;;;4958680;28;20042;-64
2023/06/16 02:38:07;;;;;;;5.15;4.53;;;15.70;60.80;;;;;;4957049;28;20035;-64
2023/06/16 02:40:33;;;;;;;4.30;3.90;;;15.70;61.00;;;;;;4958029;28;20070;-64
2023/06/16 02:42:59;;;;;;;4.80;4.30;;;15.60;61.00;;;;;;4959755;28;20712;-64
2023/06/16 02:45:24;;;;;;;6.45;4.78;;;15.60;60.80;;;;;;4959666;28;20126;-64
2023/06/16 02:47:50;;;;;;;4.78;4.30;;;15.60;61.00;;;;;;4959348;28;20050;-62
2023/06/16 02:50:16;;;;;;;4.75;4.28;;;15.50;61.00;;;;;;4956777;28;20062;-63
2023/06/16 02:52:42;;;;;;;4.85;4.35;;;15.50;61.00;;;;;;4955180;28;20049;-64
2023/06/16 02:55:13;;;;;;;7.70;4.90;;;15.50;61.30;;;;;;4944040;28;20062;-64
2023/06/16 02:57:38;;;;;;;4.70;4.30;;;15.50;61.70;;;;;;4956321;28;20035;-64
2023/06/16 03:00:09;;;;;;;5.95;5.00;;;15.50;61.50;;;;;;4956473;28;20039;-64
2023/06/16 03:02:35;;;;;;;5.10;4.70;;;15.60;61.60;;;;;;4957056;28;20043;-64
2023/06/16 03:05:01;;;;;;;5.25;4.75;;;15.60;61.70;;;;;;4956363;28;20062;-64
2023/06/16 03:07:31;;;;;;;5.35;4.90;;;15.60;61.80;;;;;;4956393;28;20062;-64
2023/06/16 03:09:57;;;;;;;6.20;5.35;;;15.60;61.70;;;;;;4957372;28;20487;-64
2023/06/16 03:12:22;;;;;;;5.03;4.63;;;15.60;61.60;;;;;;4958554;28;20031;-63
2023/06/16 03:14:48;;;;;;;5.35;4.93;;;15.60;61.70;;;;;;4954963;28;20065;-64
2023/06/16 03:17:14;;;;;;;4.95;4.45;;;15.60;61.70;;;;;;4957232;28;20026;-64
2023/06/16 03:19:40;;;;;;;7.35;4.93;;;15.70;61.70;;;;;;4955711;28;20045;-64
2023/06/16 03:22:06;;;;;;;5.40;4.97;;;15.70;61.70;;;;;;4956884;28;20039;-64
2023/06/16 03:24:33;;;;;;;5.63;5.13;;;15.70;61.80;;;;;;4958168;28;20046;-64
2023/06/16 03:26:59;;;;;;;7.80;5.00;;;15.70;61.70;;;;;;4954558;28;20038;-64
2023/06/16 03:29:25;;;;;;;4.78;4.40;;;15.80;61.70;;;;;;4956504;28;20478;-64
2023/06/16 03:31:51;;;;;;;9.15;4.68;;;15.80;61.50;;;;;;4955443;28;20090;-64
2023/06/16 03:34:16;;;;;;;6.38;4.80;;;15.90;61.50;;;;;;4955340;28;20118;-64
2023/06/16 03:36:42;;;;;;;5.82;4.78;;;15.90;61.40;;;;;;4955114;28;20134;-64
2023/06/16 03:39:08;;;;;;;5.50;5.00;;;15.90;61.40;;;;;;4956101;28;20403;-63
2023/06/16 03:41:34;;;;;;;6.18;5.30;;;16.00;61.30;;;;;;4954644;28;20454;-64
2023/06/16 03:44:00;;;;;;;8.38;4.82;;;16.00;61.20;;;;;;4955699;28;20265;-64
2023/06/16 03:46:31;;;;;;;5.82;4.80;;;16.10;61.20;;;;;;4956250;28;20125;-64
2023/06/16 03:48:57;;;;;;;5.28;4.88;;;15.90;61.20;;;;;;4955870;28;20097;-64
2023/06/16 03:51:24;;;;;;;4.93;4.47;;;16.10;61.20;;;;;;4944761;28;20037;-63
2023/06/16 03:53:57;;;;;;;7.03;4.60;;;16.20;61.30;;;;;;5037124;28;20495;-64
2023/06/16 03:56:23;;;;;;;5.30;4.90;;;16.20;61.20;;;;;;5024796;28;20662;-64
2023/06/16 03:58:49;;;;;;;5.95;5.18;;;16.30;61.20;;;;;;5022895;28;20039;-64
2023/06/16 04:01:20;;;;;;;4.88;4.47;;;16.30;61.10;;;;;;5027456;28;20045;-64
2023/06/16 04:03:46;;;;;;;5.95;4.75;;;16.30;61.50;;;;;;5024330;28;20045;-64
2023/06/16 04:06:12;;;;;;;5.13;4.72;;;16.30;61.30;;;;;;5025633;28;20121;-64
2023/06/16 04:08:37;;;;;;;5.38;4.88;;;16.30;61.40;;;;;;5024504;28;20053;-64
2023/06/16 04:11:04;;;;;;;6.25;5.07;;;16.30;61.40;;;;;;5021117;28;20132;-64
2023/06/16 04:13:30;;;;;;;6.55;4.97;;;16.30;61.50;;;;;;5024310;28;20076;-64
2023/06/16 04:15:56;;;;;;;5.30;4.80;;;16.30;61.70;;;;;;5024450;28;20080;-64
2023/06/16 04:18:22;;;;;;;5.28;4.80;;;16.30;61.60;;;;;;5024046;28;20120;-64
2023/06/16 04:20:48;;;;;;;6.38;5.05;;;16.30;61.70;;;;;;5026689;28;20548;-64
2023/06/16 04:23:13;;;;;;;5.60;5.10;;;16.20;61.70;;;;;;5023091;28;20199;-64
2023/06/16 04:25:40;;;;;;;5.75;5.15;;;16.20;61.60;;;;;;5022643;28;20213;-64
2023/06/16 04:28:07;;;;;;;5.47;4.65;;;16.20;61.50;;;;;;5025241;28;20072;-64
2023/06/16 04:30:33;;;;;;;5.05;4.65;;;16.20;61.70;;;;;;5018581;28;20038;-66
2023/06/16 04:33:01;;;;;;;6.03;5.43;;;16.20;61.70;;;;;;5016917;28;20510;-64
2023/06/16 04:35:29;;;;;;;5.40;4.90;;;16.20;61.90;;;;;;5018485;28;20103;-64
2023/06/16 04:37:57;;;;;;;6.43;5.30;;;16.20;61.90;;;;;;5020682;28;20572;-65
2023/06/16 04:40:23;;;;;;;5.35;4.85;;;16.20;62.00;;;;;;5024664;28;20493;-63
2023/06/16 04:42:49;;;;;;;5.30;4.63;;;16.20;62.20;;;;;;5021785;28;20051;-64
2023/06/16 04:45:15;;;;;;;7.03;5.07;;;16.10;62.20;;;;;;5022514;28;20037;-63
2023/06/16 04:47:42;;;;;;;6.07;5.22;;;16.10;62.40;;;;;;5020479;28;20037;-64
2023/06/16 04:50:09;;;;;;;6.20;5.60;;;16.20;62.60;;;;;;5026279;28;20136;-64
2023/06/16 04:52:36;;;;;;;6.38;5.50;;;16.20;62.40;;;;;;5025300;28;20029;-64
2023/06/16 04:55:03;;;;;;;6.82;6.10;;;16.20;62.40;;;;;;5027421;28;20026;-63
2023/06/16 04:57:29;;;;;;;8.55;6.30;;;16.20;62.40;;;;;;5025807;28;20040;-64
2023/06/16 04:59:54;;;;;;;7.75;6.50;;;16.30;62.30;;;;;;5027395;28;20025;-63
2023/06/16 05:02:20;;;;;;;9.32;6.75;;;16.30;62.20;;;;;;5024377;28;20436;-64
2023/06/16 05:04:45;;;;;;;6.18;5.57;;;16.40;62.40;;;;;;5010235;28;20136;-64
2023/06/16 05:07:11;;;;;;;6.60;6.00;;;16.50;62.20;;;;;;5011680;28;20418;-64
2023/06/16 05:09:38;;;;;;;5.93;5.43;;;16.50;62.20;;;;;;5006787;28;20044;-63
2023/06/16 05:12:05;;;;;;;7.53;5.93;;;16.50;62.90;;;;;;5010523;28;20041;-64
2023/06/16 05:14:31;;;;;;;7.38;5.78;;;16.60;62.00;;;;;;5009037;28;20382;-63
2023/06/16 05:16:56;;;;;;;7.53;5.60;;;16.60;61.90;;;;;;5006069;28;20034;-64
2023/06/16 05:19:22;;;;;;;6.65;5.97;;;16.70;62.00;;;;;;5013237;28;20107;-64
2023/06/16 05:21:48;;;;;;;7.95;6.30;;;16.80;61.90;;;;;;5013102;28;20033;-64
2023/06/16 05:24:14;;;;;;;11.55;6.15;;;16.80;61.90;;;;;;5012301;28;20524;-63
2023/06/16 05:26:41;;;;;;;8.18;6.38;;;16.80;61.90;;;;;;5005385;28;20038;-64
2023/06/16 05:29:06;;;;;;;13.80;6.18;;;16.90;61.90;;;;;;5006292;28;20545;-64
2023/06/16 05:31:32;;;;;;;9.93;5.43;;;17.00;62.10;;;;;;5011076;28;20030;-63
2023/06/16 05:33:58;;;;;;;11.32;6.20;;;17.00;62.10;;;;;;5010622;28;20115;-64
2023/06/16 05:36:24;;;;;;;10.60;5.88;;;17.10;62.00;;;;;;5005456;28;20038;-64
2023/06/16 05:38:51;;;;;;;9.45;6.38;;;17.30;61.70;;;;;;5012343;28;20382;-64
2023/06/16 05:41:17;;;;;;;10.95;6.38;;;17.30;61.80;;;;;;5012705;28;20168;-64
2023/06/16 05:43:43;;;;;;;25.75;6.63;;;17.40;61.70;;;;;;5009405;28;20034;-64
2023/06/16 05:46:08;;;;;;;16.02;6.05;;;17.50;61.60;;;;;;5007942;28;20048;-64
2023/06/16 05:48:35;;;;;;;7.47;5.82;;;17.60;61.60;;;;;;5009877;28;20041;-63
2023/06/16 05:51:00;;;;;;;7.93;6.20;;;17.70;61.40;;;;;;5008803;28;20071;-64
2023/06/16 05:53:26;;;;;;;8.77;5.38;;;17.80;61.30;;;;;;5008527;28;20172;-64
2023/06/16 05:55:51;;;;;;;14.95;5.60;;;17.90;61.00;;;;;;5006442;28;20046;-64
2023/06/16 05:58:17;;;;;;;17.75;5.70;;;18.00;60.60;;;;;;5009327;28;20042;-63
2023/06/16 06:00:43;;;;;;;15.80;5.70;;;18.10;60.60;;;;;;5009266;28;20044;-63
2023/06/16 06:03:08;;;;;;;10.63;5.78;;;18.20;60.40;;;;;;5010735;28;20042;-64
2023/06/16 06:05:34;;;;;;;12.90;5.13;;;18.30;60.30;;;;;;5005730;28;20557;-63
2023/06/16 06:08:00;;;;;;;11.02;4.85;;;18.40;59.80;;;;;;5005017;28;20049;-64
2023/06/16 06:10:25;;;;;;;16.52;4.68;;;18.50;59.40;;;;;;5003934;28;20073;-65
2023/06/16 06:12:51;;;;;;;10.95;5.15;;;18.60;59.20;;;;;;5008457;28;20067;-64
2023/06/16 06:15:17;;;;;;;5.95;4.50;;;18.70;59.00;;;;;;5010601;28;20573;-64
2023/06/16 06:17:43;;;;;;;8.07;4.97;;;18.80;58.90;;;;;;5010626;28;20431;-63
2023/06/16 06:20:10;;;;;;;11.40;4.50;;;18.80;58.80;;;;;;5008871;28;20205;-64
2023/06/16 06:22:35;;;;;;;8.35;5.05;;;19.00;58.70;;;;;;5007261;28;20030;-64
2023/06/16 06:25:03;;;;;;;5.65;5.03;;;19.00;59.10;;;;;;5007586;28;20038;-64
2023/06/16 06:27:29;;;;;;;6.18;4.70;;;19.10;58.30;;;;;;5008148;28;20125;-64
2023/06/16 06:29:55;;;;;;;8.00;4.60;;;19.20;58.30;;;;;;5009913;28;20116;-64
2023/06/16 06:32:20;;;;;;;10.63;4.85;;;19.30;58.20;;;;;;5009643;28;20030;-66
2023/06/16 06:34:46;;;;;;;5.93;4.63;;;19.40;58.00;;;;;;5005742;28;20519;-63
2023/06/16 06:37:16;;;;;;;6.25;4.50;;;19.50;57.80;;;;;;5007565;28;20037;-63
2023/06/16 06:39:42;;;;;;;4.90;4.47;;;19.50;57.70;;;;;;5006787;28;20040;-63
2023/06/16 06:42:08;;;;;;;11.82;4.57;;;19.60;57.70;;;;;;5008207;28;20521;-64
2023/06/16 06:44:33;;;;;;;10.07;3.92;;;19.70;57.40;;;;;;5011475;28;20095;-64
2023/06/16 06:46:59;;;;;;;8.48;4.25;;;19.80;56.90;;;;;;5011365;28;20171;-64
2023/06/16 06:49:25;;;;;;;9.55;4.30;;;19.90;56.60;;;;;;5011317;28;20490;-64
2023/06/16 06:51:51;;;;;;;8.32;3.95;;;20.00;56.60;;;;;;5009237;28;20044;-63
2023/06/16 06:54:16;;;;;;;5.03;4.35;;;20.10;56.40;;;;;;5008815;28;20117;-64
2023/06/16 06:56:42;;;;;;;5.50;3.88;;;20.20;56.00;;;;;;5008355;28;20325;-63
2023/06/16 06:59:08;;;;;;;5.35;3.72;;;20.30;56.00;;;;;;5006400;28;20042;-64
2023/06/16 07:01:33;;;;;;;4.25;3.85;;;20.40;55.80;;;;;;5007851;28;20029;-64
2023/06/16 07:03:59;;;;;;;4.20;3.67;;;20.50;55.60;;;;;;5007159;28;20084;-64
2023/06/16 07:06:24;;;;;;;5.22;3.83;;;20.60;55.60;;;;;;5006004;28;20040;-64
2023/06/16 07:08:50;;;;;;;4.72;3.78;;;20.70;55.50;;;;;;5006176;28;20467;-63
2023/06/16 07:11:16;;;;;;;4.75;3.80;;;20.90;55.40;;;;;;5002964;28;20085;-64
2023/06/16 07:13:41;;;;;;;3.85;3.55;;;20.90;54.50;;;;;;5002615;28;20614;-64
2023/06/16 07:16:07;;;;;;;4.35;3.95;;;21.10;54.20;;;;;;5007802;28;20045;-64
2023/06/16 07:18:32;;;;;;;3.97;3.65;;;21.20;53.80;;;;;;5008227;28;20045;-63
2023/06/16 07:20:58;;;;;;;3.72;3.30;;;21.30;54.00;;;;;;5009716;28;20513;-62
2023/06/16 07:23:25;;;;;;;4.05;3.75;;;21.40;53.60;;;;;;5009513;28;20091;-64
2023/06/16 07:25:52;;;;;;;7.10;3.70;;;21.40;53.60;;;;;;5008153;28;20297;-64
2023/06/16 07:28:17;;;;;;;3.47;3.17;;;21.60;53.10;;;;;;5007498;28;20037;-63
2023/06/16 07:30:43;;;;;;;3.80;3.38;;;21.70;52.80;;;;;;5007103;28;20045;-64
2023/06/16 07:33:08;;;;;;;6.07;3.90;;;21.80;52.90;;;;;;5008764;28;20556;-64
2023/06/16 07:35:34;;;;;;;4.00;3.60;;;21.90;52.90;;;;;;5008552;28;20451;-64
2023/06/16 07:38:00;;;;;;;3.92;3.63;;;22.00;52.20;;;;;;5007624;28;20041;-63
2023/06/16 07:40:26;;;;;;;3.47;3.17;;;22.10;52.00;;;;;;5006717;28;20137;-64
2023/06/16 07:42:51;;;;;;;3.60;3.10;;;22.20;51.30;;;;;;5006398;28;20034;-64
2023/06/16 07:45:17;;;;;;;5.55;2.90;;;22.30;51.40;;;;;;5005931;28;20123;-64
2023/06/16 07:47:45;;;;;;;4.15;3.63;;;22.40;51.10;;;;;;5006680;28;20033;-64
2023/06/16 07:50:13;;;;;;;4.18;3.78;;;22.50;51.00;;;;;;5008668;28;20116;-64
2023/06/16 07:52:39;;;;;;;5.50;3.28;;;22.60;50.60;;;;;;5004989;28;20409;-65
2023/06/16 07:55:06;;;;;;;3.67;3.08;;;22.80;49.60;;;;;;5007701;28;20040;-63
2023/06/16 07:57:33;;;;;;;3.28;3.08;;;22.80;50.00;;;;;;5005710;28;20448;-64
2023/06/16 07:59:58;;;;;;;3.97;3.53;;;22.90;50.00;;;;;;5011195;28;20370;-64
2023/06/16 08:02:24;;;;;;;4.03;3.13;;;23.00;50.00;;;;;;5000928;28;20053;-65
2023/06/16 08:04:50;;;;;;;5.57;3.47;;;23.10;49.50;;;;;;5013694;28;20046;-64
2023/06/16 08:07:16;;;;;;;4.13;3.05;;;23.20;48.80;;;;;;5011755;28;20041;-64
2023/06/16 08:09:41;;;;;;;3.53;2.92;;;23.30;48.70;;;;;;5008971;28;20559;-64
2023/06/16 08:12:09;;;;;;;4.45;3.00;;;23.40;48.80;;;;;;5009279;28;20044;-65
2023/06/16 08:14:36;;;;;;;4.88;2.85;;;23.50;48.40;;;;;;5009235;28;20030;-63
2023/06/16 08:17:02;;;;;;;5.70;2.78;;;23.60;47.00;;;;;;5004062;28;20034;-64
2023/06/16 08:19:27;;;;;;;3.65;2.97;;;23.70;47.10;;;;;;5000132;28;20513;-64
2023/06/16 08:21:53;;;;;;;4.43;3.17;;;23.80;46.60;;;;;;5007615;28;20034;-64
2023/06/16 08:24:18;;;;;;;3.70;2.58;;;23.80;45.20;;;;;;5006198;28;20124;-64
2023/06/16 08:26:46;;;;;;;4.15;2.65;;;23.90;45.70;;;;;;5008324;28;20417;-64
2023/06/16 08:29:14;;;;;;;5.28;2.70;;;23.90;45.00;;;;;;5009244;28;20413;-64
2023/06/16 08:31:39;;;;;;;4.50;3.00;;;24.00;45.10;;;;;;5011068;28;20087;-64
2023/06/16 08:34:05;;;;;;;5.22;3.13;;;24.10;45.20;;;;;;5010540;28;20456;-64
2023/06/16 08:36:33;;;;;;;4.63;2.85;;;24.20;44.60;;;;;;5008451;28;20038;-64
2023/06/16 08:38:58;;;;;;;3.42;2.63;;;24.30;44.70;;;;;;5009524;28;20399;-64
2023/06/16 08:41:26;;;;;;;4.10;2.90;;;24.40;44.20;;;;;;5010481;28;20033;-64
2023/06/16 08:43:53;;;;;;;13.52;3.10;;;24.50;44.20;;;;;;5013663;28;20037;-64
2023/06/16 08:46:19;;;;;;;3.10;2.60;;;24.60;44.30;;;;;;5012062;28;20361;-64
2023/06/16 08:48:45;;;;;;;3.78;2.47;;;24.70;43.60;;;;;;5012636;28;20036;-64
2023/06/16 08:51:14;;;;;;;4.53;2.75;;;24.70;43.30;;;;;;5011389;28;20033;-64
2023/06/16 08:53:41;;;;;;;2.78;2.58;;;24.80;43.40;;;;;;5011493;28;20041;-64
2023/06/16 08:56:07;;;;;;;3.28;2.58;;;24.70;43.60;;;;;;5011737;28;20041;-64
2023/06/16 08:58:37;;;;;;;3.50;2.70;;;24.80;43.50;;;;;;5011892;28;20025;-64
2023/06/16 09:01:04;;;;;;;3.55;2.88;;;24.80;43.20;;;;;;5011615;28;21837;-64
2023/06/16 09:03:32;;;;;;;3.38;2.45;;;24.80;42.10;;;;;;5012855;28;20095;-64
2023/06/16 09:06:02;;;;;;;3.15;2.50;;;24.70;42.00;;;;;;5012437;28;20043;-64
2023/06/16 09:08:28;;;;;;;4.85;2.30;;;24.60;41.60;;;;;;5013496;28;20045;-64
2023/06/16 09:10:57;;;;;;;2.40;2.20;;;24.50;42.00;;;;;;5009206;28;20120;-64
2023/06/16 09:13:24;;;;;;;2.90;2.20;;;24.50;41.30;;;;;;5010624;28;20050;-64
2023/06/16 09:15:50;;;;;;;5.28;2.47;;;24.40;41.80;;;;;;5011637;28;20489;-64
2023/06/16 09:18:16;;;;;;;3.33;2.63;;;24.50;41.60;;;;;;5012303;28;20041;-64
2023/06/16 09:20:44;;;;;;;2.95;2.30;;;24.50;40.50;;;;;;5011348;28;20116;-64
2023/06/16 09:23:10;;;;;;;3.63;2.50;;;24.60;40.80;;;;;;5010826;28;20038;-64
2023/06/16 09:25:38;;;;;;;5.18;2.40;;;24.70;40.70;;;;;;5008293;28;20038;-64
2023/06/16 09:28:09;;;;;;;4.60;2.70;;;24.80;40.50;;;;;;5012643;28;20539;-64
2023/06/16 09:30:35;;;;;;;3.15;2.47;;;24.90;39.60;;;;;;5012709;28;20044;-64
2023/06/16 09:33:01;;;;;;;4.88;2.60;;;25.00;39.80;;;;;;5014361;28;20436;-64
2023/06/16 09:35:28;;;;;;;5.22;2.85;;;25.10;39.80;;;;;;5015112;28;20044;-65
2023/06/16 09:37:59;;;;;;;4.78;2.63;;;25.20;38.90;;;;;;5010393;28;20042;-64
2023/06/16 09:40:30;;;;;;;4.88;2.60;;;25.20;38.40;;;;;;5011828;28;20064;-64
2023/06/16 09:42:59;;;;;;;3.15;2.50;;;25.30;37.40;;;;;;5009099;28;20132;-64
2023/06/16 09:45:32;;;;;;;2.90;2.60;;;25.30;38.30;;;;;;5005704;28;20042;-65
2023/06/16 09:48:02;;;;;;;2.80;2.60;;;25.30;37.50;;;;;;5033152;28;20557;-64
2023/06/16 09:50:30;;;;;;;2.33;2.22;;;25.30;37.80;;;;;;5032251;28;20038;-63
2023/06/16 09:52:57;;;;;;;3.10;2.55;;;25.30;38.10;;;;;;5030644;28;20428;-64
2023/06/16 09:55:27;;;;;;;5.28;2.67;;;25.30;37.80;;;;;;5029458;28;20037;-64
2023/06/16 09:57:53;;;;;;;2.65;2.45;;;25.30;38.00;;;;;;5033053;28;20037;-64
2023/06/16 10:00:19;;;;;;;3.10;2.78;;;25.30;37.20;;;;;;5029769;28;20090;-65
2023/06/16 10:02:50;;;;;;;5.20;2.75;;;25.30;38.00;;;;;;5022482;28;20034;-64
2023/06/16 10:05:21;;;;;;;2.95;2.60;;;25.30;38.00;;;;;;5030555;28;20037;-64
2023/06/16 10:07:57;;;;;;;3.25;2.75;;;25.40;37.80;;;;;;5029605;28;20056;-65
2023/06/16 10:10:28;;;;;;;3.25;2.58;;;25.40;36.00;;;;;;5031173;28;20041;-65
2023/06/16 10:12:54;;;;;;;2.95;2.30;;;25.40;37.20;;;;;;5033251;28;20483;-65
2023/06/16 10:15:23;;;;;;;3.15;2.70;;;25.30;37.20;;;;;;5036302;28;20120;-64
2023/06/16 10:17:55;;;;;;;3.22;2.70;;;25.30;37.40;;;;;;5035629;28;20500;-64
2023/06/16 10:20:24;;;;;;;2.83;2.50;;;25.20;36.90;;;;;;5035948;28;20064;-64
2023/06/16 10:22:50;;;;;;;3.33;2.42;;;25.20;36.90;;;;;;5035330;28;20041;-64
2023/06/16 10:25:18;;;;;;;3.10;2.80;;;25.10;36.70;;;;;;5035917;28;20351;-64
2023/06/16 10:27:44;;;;;;;4.95;2.78;;;25.10;36.50;;;;;;5034880;28;20061;-64
2023/06/16 10:30:19;;;;;;;2.40;2.20;;;25.10;36.80;;;;;;5034253;28;20048;-64
2023/06/16 10:32:52;;;;;;;3.38;2.83;;;25.10;37.00;;;;;;5030799;28;20129;-64
2023/06/16 10:35:19;;;;;;;4.18;2.92;;;25.30;35.90;;;;;;5033408;28;20040;-64
2023/06/16 10:37:55;;;;;;;4.05;3.40;;;25.30;36.00;;;;;;5026947;28;20030;-64
2023/06/16 10:40:23;;;;;;;5.05;3.22;;;25.40;35.40;;;;;;5030317;28;20068;-64
2023/06/16 10:42:55;;;;;;;4.05;3.30;;;25.40;34.70;;;;;;5029113;28;20175;-67
2023/06/16 10:45:28;;;;;;;3.78;2.97;;;25.40;34.90;;;;;;5032311;28;20531;-64
2023/06/16 10:48:03;;;;;;;3.63;2.65;;;25.50;34.30;;;;;;5030436;28;20101;-65
2023/06/16 10:50:58;;;;;;;3.25;2.63;;;25.50;34.40;;;;;;5031706;28;20094;-63
2023/06/16 10:53:24;;;;;;;3.65;3.03;;;25.50;33.50;;;;;;5030087;28;20460;-65
2023/06/16 10:56:05;;;;;;;6.43;2.85;;;25.50;33.60;;;;;;5032087;28;20068;-64
2023/06/16 10:58:32;;;;;;;4.78;3.00;;;25.60;34.10;;;;;;5032693;28;20400;-65
2023/06/16 11:01:05;;;;;;;3.35;3.05;;;25.60;34.20;;;;;;5031863;28;20041;-64
2023/06/16 11:03:34;;;;;;;6.05;3.13;;;25.70;32.20;;;;;;5030538;28;20055;-65
2023/06/16 11:06:00;;;;;;;3.60;2.83;;;25.70;32.10;;;;;;5029229;28;20040;-63
2023/06/16 11:08:27;;;;;;;3.80;3.08;;;25.70;32.50;;;;;;5032121;28;20033;-64
2023/06/16 11:10:54;;;;;;;3.42;2.72;;;25.70;32.40;;;;;;5026973;28;20083;-63
2023/06/16 11:13:25;;;;;;;3.38;3.08;;;25.70;33.20;;;;;;5030388;28;21014;-64
2023/06/16 11:15:56;;;;;;;3.33;3.10;;;25.80;32.30;;;;;;5028361;28;20064;-65
2023/06/16 11:18:31;;;;;;;4.60;2.90;;;25.90;31.90;;;;;;5024226;28;20052;-65
2023/06/16 11:21:10;;;;;;;4.95;3.03;;;26.00;32.50;;;;;;5028148;28;20458;-64
2023/06/16 11:23:36;;;;;;;2.78;2.58;;;26.10;31.00;;;;;;5028416;28;20040;-63
2023/06/16 11:26:04;;;;;;;6.70;2.67;;;26.10;31.60;;;;;;5022753;28;20463;-63
2023/06/16 11:28:30;;;;;;;7.15;2.78;;;26.10;31.70;;;;;;5026222;28;20037;-64
2023/06/16 11:30:56;;;;;;;3.75;2.72;;;26.10;32.30;;;;;;5028972;28;20071;-64
2023/06/16 11:33:22;;;;;;;4.68;3.15;;;26.10;32.50;;;;;;5030172;28;20097;-63
2023/06/16 11:35:48;;;;;;;3.38;2.92;;;26.10;32.00;;;;;;5027540;28;20528;-62
2023/06/16 11:38:27;;;;;;;4.07;2.90;;;26.10;32.50;;;;;;5025924;28;20037;-63
2023/06/16 11:40:53;;;;;;;4.30;2.90;;;26.20;31.20;;;;;;5031400;28;20037;-64
2023/06/16 11:43:22;;;;;;;2.78;2.53;;;26.30;32.80;;;;;;5032967;28;20494;-64
2023/06/16 11:45:48;;;;;;;5.28;2.80;;;26.40;33.00;;;;;;5028704;28;20033;-64
2023/06/16 11:48:13;;;;;;;3.20;2.78;;;26.60;32.60;;;;;;5028392;28;20045;-63
2023/06/16 11:50:40;;;;;;;4.57;3.17;;;26.70;32.50;;;;;;5029090;28;20516;-63
2023/06/16 11:53:05;;;;;;;4.63;2.75;;;26.70;31.80;;;;;;5028607;28;20543;-64
2023/06/16 11:55:31;;;;;;;275.33;14.48;;;26.70;32.10;;;;;;5026940;28;20133;-64
2023/06/16 11:57:57;;;;;;;4.50;2.83;;;26.60;32.00;;;;;;5029533;28;20033;-63
2023/06/16 12:00:23;;;;;;;5.43;2.70;;;26.60;32.00;;;;;;5027245;28;20044;-64
2023/06/16 12:02:50;;;;;;;2.85;2.65;;;26.50;32.50;;;;;;5024310;28;20571;-63
2023/06/16 12:05:29;;;;;;;3.60;2.67;;;26.40;32.90;;;;;;5027528;28;20512;-64
2023/06/16 12:07:54;;;;;;;4.78;2.92;;;26.40;32.70;;;;;;5027519;28;20041;-63
2023/06/16 12:10:22;;;;;;;3.38;2.95;;;26.40;33.00;;;;;;5027142;28;20033;-63
2023/06/16 12:12:48;;;;;;;2.95;2.65;;;26.50;32.70;;;;;;5026841;28;20045;-62
2023/06/16 12:15:20;;;;;;;3.30;2.97;;;26.50;32.60;;;;;;5029504;28;20048;-63
2023/06/16 12:17:47;;;;;;;2.92;2.72;;;26.50;32.00;;;;;;5032259;28;20029;-63
2023/06/16 12:20:13;;;;;;;12.93;3.10;;;26.60;32.60;;;;;;5032754;28;20428;-63
2023/06/16 12:22:39;;;;;;;2.90;2.60;;;26.50;32.40;;;;;;5029589;28;20526;-63
2023/06/16 12:25:15;;;;;;;3.00;2.80;;;26.50;32.20;;;;;;5035125;28;20025;-63
2023/06/16 12:27:49;;;;;;;3.25;3.05;;;26.50;32.50;;;;;;5034196;28;20030;-63
2023/06/16 12:30:15;;;;;;;6.30;2.90;;;26.40;32.80;;;;;;5032501;28;20420;-64
2023/06/16 12:32:42;;;;;;;3.08;2.78;;;26.40;33.20;;;;;;5027764;28;21307;-61
2023/06/16 12:35:08;;;;;;;3.10;2.80;;;26.40;33.00;;;;;;5034028;28;20075;-64
2023/06/16 12:37:35;;;;;;;5.25;3.22;;;26.40;33.40;;;;;;5029909;28;20092;-63
2023/06/16 12:40:06;;;;;;;7.30;3.65;;;26.50;33.00;;;;;;5034163;28;20036;-64
2023/06/16 12:42:33;;;;;;;3.50;3.20;;;26.60;33.10;;;;;;5034681;28;20040;-64
2023/06/16 12:45:02;;;;;;;6.03;3.47;;;26.60;33.20;;;;;;5036194;28;20562;-64
2023/06/16 12:47:29;;;;;;;4.03;3.17;;;26.60;32.80;;;;;;5033334;28;20060;-64